Pagina principale
METAR-TAF:

METAR-TAF

Aeroporti :

Flessinga, Paesi Bassi

latitudine: 51-27N, longitudine: 3-36E, altezza: 10 m

Osservazione

Il bollettino è stato emesso 39 minuti fa, alle 09:55 UTC
Vento 15 kt da ovest, variando fra sud-ovest e ovest/nord-ovest
Temperature 15°C
Umidità 63%
Pressione 1007 hPa
Visibilità 10 km o più

METAR: EHFS 070955Z AUTO 26015KT 230V290 9999 FEW024/// 15/08 Q1007

Ora: 12:34 (10:34 UTC)


TAF: mancante

Osservazioni e previsioni meteorologiche di più di 4000 aeroporti (messaggi METAR e TAF).

Le stazioni disponibili sono rappresentate dai dischi gialli e rossi sulla carta.

Puntare il mouse per vedere il nome della stazione.

Clicca sopra per visualizzare le osservazioni e previsioni meteorologiche.

Per cambiare la mappa : fare clic sui pulsanti verdi con una croce nera per ingrandire, il pulsante verde con un trattino per diminuire, o sulla freccia verde per le mappe adiacenti.


METAR-TAF: